sensor_id;sensor_type;location;lat;lon;timestamp;P1;durP1;ratioP1;P2;durP2;ratioP2
2706;SDS011;7819;48.046;7.642;2023-07-20T00:01:58;3.20;;;2.60;;
2706;SDS011;7819;48.046;7.642;2023-07-20T00:04:24;5.30;;;2.17;;
2706;SDS011;7819;48.046;7.642;2023-07-20T00:06:49;3.77;;;2.30;;
2706;SDS011;7819;48.046;7.642;2023-07-20T00:09:14;3.93;;;2.33;;
2706;SDS011;7819;48.046;7.642;2023-07-20T00:11:39;4.47;;;2.70;;
2706;SDS011;7819;48.046;7.642;2023-07-20T00:14:05;3.60;;;2.33;;
2706;SDS011;7819;48.046;7.642;2023-07-20T00:16:30;4.77;;;2.60;;
2706;SDS011;7819;48.046;7.642;2023-07-20T00:18:55;3.00;;;2.50;;
2706;SDS011;7819;48.046;7.642;2023-07-20T00:21:20;5.00;;;2.27;;
2706;SDS011;7819;48.046;7.642;2023-07-20T00:23:45;2.80;;;2.33;;
2706;SDS011;7819;48.046;7.642;2023-07-20T00:26:10;4.93;;;3.00;;
2706;SDS011;7819;48.046;7.642;2023-07-20T00:28:36;4.90;;;2.50;;
2706;SDS011;7819;48.046;7.642;2023-07-20T00:31:01;8.60;;;2.47;;
2706;SDS011;7819;48.046;7.642;2023-07-20T00:33:27;3.60;;;2.57;;
2706;SDS011;7819;48.046;7.642;2023-07-20T00:35:52;3.17;;;2.87;;
2706;SDS011;7819;48.046;7.642;2023-07-20T00:38:18;2.93;;;2.40;;
2706;SDS011;7819;48.046;7.642;2023-07-20T00:40:43;4.07;;;2.87;;
2706;SDS011;7819;48.046;7.642;2023-07-20T00:43:08;5.83;;;3.07;;
2706;SDS011;7819;48.046;7.642;2023-07-20T00:45:34;3.40;;;2.53;;
2706;SDS011;7819;48.046;7.642;2023-07-20T00:47:59;3.77;;;2.77;;
2706;SDS011;7819;48.046;7.642;2023-07-20T00:50:25;3.60;;;3.07;;
2706;SDS011;7819;48.046;7.642;2023-07-20T00:52:51;3.10;;;2.40;;
2706;SDS011;7819;48.046;7.642;2023-07-20T00:55:16;4.63;;;2.80;;
2706;SDS011;7819;48.046;7.642;2023-07-20T00:57:42;4.90;;;3.00;;
2706;SDS011;7819;48.046;7.642;2023-07-20T01:00:07;3.50;;;2.23;;
2706;SDS011;7819;48.046;7.642;2023-07-20T01:02:32;3.57;;;2.70;;
2706;SDS011;7819;48.046;7.642;2023-07-20T01:04:57;3.00;;;2.70;;
2706;SDS011;7819;48.046;7.642;2023-07-20T01:07:24;4.00;;;2.80;;
2706;SDS011;7819;48.046;7.642;2023-07-20T01:10:05;4.50;;;3.43;;
2706;SDS011;7819;48.046;7.642;2023-07-20T01:12:43;7.73;;;2.90;;
2706;SDS011;7819;48.046;7.642;2023-07-20T01:15:08;4.13;;;2.43;;
2706;SDS011;7819;48.046;7.642;2023-07-20T01:17:34;4.50;;;2.90;;
2706;SDS011;7819;48.046;7.642;2023-07-20T01:19:59;4.07;;;3.07;;
2706;SDS011;7819;48.046;7.642;2023-07-20T01:27:44;4.60;;;2.63;;
2706;SDS011;7819;48.046;7.642;2023-07-20T01:32:45;4.20;;;2.70;;
2706;SDS011;7819;48.046;7.642;2023-07-20T01:35:12;3.50;;;2.77;;
2706;SDS011;7819;48.046;7.642;2023-07-20T01:37:39;3.63;;;2.80;;
2706;SDS011;7819;48.046;7.642;2023-07-20T01:40:06;3.97;;;2.53;;
2706;SDS011;7819;48.046;7.642;2023-07-20T01:42:31;3.90;;;2.70;;
2706;SDS011;7819;48.046;7.642;2023-07-20T01:44:56;4.97;;;3.00;;
2706;SDS011;7819;48.046;7.642;2023-07-20T01:47:22;2.80;;;2.30;;
2706;SDS011;7819;48.046;7.642;2023-07-20T01:49:47;3.33;;;2.37;;
2706;SDS011;7819;48.046;7.642;2023-07-20T01:52:12;5.93;;;2.57;;
2706;SDS011;7819;48.046;7.642;2023-07-20T01:54:37;3.60;;;2.80;;
2706;SDS011;7819;48.046;7.642;2023-07-20T01:57:03;4.90;;;3.10;;
2706;SDS011;7819;48.046;7.642;2023-07-20T01:59:29;5.03;;;3.30;;
2706;SDS011;7819;48.046;7.642;2023-07-20T02:01:54;4.50;;;2.97;;
2706;SDS011;7819;48.046;7.642;2023-07-20T02:04:19;3.60;;;2.83;;
2706;SDS011;7819;48.046;7.642;2023-07-20T02:06:44;5.57;;;2.70;;
2706;SDS011;7819;48.046;7.642;2023-07-20T02:09:09;5.47;;;3.03;;
2706;SDS011;7819;48.046;7.642;2023-07-20T02:11:34;5.00;;;2.30;;
2706;SDS011;7819;48.046;7.642;2023-07-20T02:14:00;3.57;;;2.70;;
2706;SDS011;7819;48.046;7.642;2023-07-20T02:16:25;3.07;;;2.73;;
2706;SDS011;7819;48.046;7.642;2023-07-20T02:18:50;4.00;;;2.60;;
2706;SDS011;7819;48.046;7.642;2023-07-20T02:21:15;3.83;;;2.93;;
2706;SDS011;7819;48.046;7.642;2023-07-20T02:23:41;5.13;;;2.97;;
2706;SDS011;7819;48.046;7.642;2023-07-20T02:26:06;3.10;;;2.50;;
2706;SDS011;7819;48.046;7.642;2023-07-20T02:28:31;4.17;;;2.93;;
2706;SDS011;7819;48.046;7.642;2023-07-20T02:30:56;3.43;;;2.57;;
2706;SDS011;7819;48.046;7.642;2023-07-20T02:33:22;5.13;;;2.70;;
2706;SDS011;7819;48.046;7.642;2023-07-20T02:35:47;3.37;;;2.80;;
2706;SDS011;7819;48.046;7.642;2023-07-20T02:38:12;2.63;;;2.23;;
2706;SDS011;7819;48.046;7.642;2023-07-20T02:40:37;3.40;;;2.60;;
2706;SDS011;7819;48.046;7.642;2023-07-20T02:43:02;6.20;;;3.23;;
2706;SDS011;7819;48.046;7.642;2023-07-20T02:45:29;3.20;;;2.90;;
2706;SDS011;7819;48.046;7.642;2023-07-20T02:47:54;6.03;;;2.37;;
2706;SDS011;7819;48.046;7.642;2023-07-20T02:50:19;3.07;;;2.70;;
2706;SDS011;7819;48.046;7.642;2023-07-20T02:52:44;6.53;;;3.30;;
2706;SDS011;7819;48.046;7.642;2023-07-20T02:55:10;2.93;;;2.60;;
2706;SDS011;7819;48.046;7.642;2023-07-20T02:57:35;4.90;;;3.27;;
2706;SDS011;7819;48.046;7.642;2023-07-20T03:00:01;3.20;;;2.77;;
2706;SDS011;7819;48.046;7.642;2023-07-20T03:02:28;3.50;;;2.80;;
2706;SDS011;7819;48.046;7.642;2023-07-20T03:04:53;5.90;;;3.20;;
2706;SDS011;7819;48.046;7.642;2023-07-20T03:07:19;4.50;;;3.07;;
2706;SDS011;7819;48.046;7.642;2023-07-20T03:09:44;4.73;;;2.83;;
2706;SDS011;7819;48.046;7.642;2023-07-20T03:12:09;3.60;;;2.80;;
2706;SDS011;7819;48.046;7.642;2023-07-20T03:14:34;4.20;;;3.20;;
2706;SDS011;7819;48.046;7.642;2023-07-20T03:17:00;6.00;;;2.90;;
2706;SDS011;7819;48.046;7.642;2023-07-20T03:19:25;4.27;;;2.70;;
2706;SDS011;7819;48.046;7.642;2023-07-20T03:21:50;5.07;;;3.17;;
2706;SDS011;7819;48.046;7.642;2023-07-20T03:24:16;4.90;;;3.00;;
2706;SDS011;7819;48.046;7.642;2023-07-20T03:26:41;5.30;;;2.90;;
2706;SDS011;7819;48.046;7.642;2023-07-20T03:29:06;3.77;;;2.80;;
2706;SDS011;7819;48.046;7.642;2023-07-20T03:31:31;4.07;;;2.83;;
2706;SDS011;7819;48.046;7.642;2023-07-20T03:33:57;3.87;;;2.60;;
2706;SDS011;7819;48.046;7.642;2023-07-20T03:36:22;3.53;;;2.60;;
2706;SDS011;7819;48.046;7.642;2023-07-20T03:38:47;3.27;;;2.80;;
2706;SDS011;7819;48.046;7.642;2023-07-20T03:41:12;4.40;;;2.67;;
2706;SDS011;7819;48.046;7.642;2023-07-20T03:43:37;3.63;;;2.43;;
2706;SDS011;7819;48.046;7.642;2023-07-20T03:46:03;4.50;;;2.97;;
2706;SDS011;7819;48.046;7.642;2023-07-20T03:48:31;3.80;;;2.73;;
2706;SDS011;7819;48.046;7.642;2023-07-20T03:50:57;5.70;;;3.10;;
2706;SDS011;7819;48.046;7.642;2023-07-20T03:53:23;4.30;;;2.73;;
2706;SDS011;7819;48.046;7.642;2023-07-20T03:55:48;4.80;;;3.13;;
2706;SDS011;7819;48.046;7.642;2023-07-20T03:58:14;5.80;;;2.63;;
2706;SDS011;7819;48.046;7.642;2023-07-20T04:00:39;3.43;;;2.80;;
2706;SDS011;7819;48.046;7.642;2023-07-20T04:03:05;5.93;;;2.87;;
2706;SDS011;7819;48.046;7.642;2023-07-20T04:05:30;4.93;;;2.93;;
2706;SDS011;7819;48.046;7.642;2023-07-20T04:07:55;4.40;;;3.57;;
2706;SDS011;7819;48.046;7.642;2023-07-20T04:10:21;3.23;;;2.67;;
2706;SDS011;7819;48.046;7.642;2023-07-20T04:12:46;3.47;;;2.90;;
2706;SDS011;7819;48.046;7.642;2023-07-20T04:15:14;4.03;;;2.67;;
2706;SDS011;7819;48.046;7.642;2023-07-20T04:17:39;5.10;;;3.47;;
2706;SDS011;7819;48.046;7.642;2023-07-20T04:20:05;3.90;;;2.30;;
2706;SDS011;7819;48.046;7.642;2023-07-20T04:22:31;3.70;;;2.83;;
2706;SDS011;7819;48.046;7.642;2023-07-20T04:24:56;4.40;;;2.70;;
2706;SDS011;7819;48.046;7.642;2023-07-20T04:27:21;6.60;;;3.50;;
2706;SDS011;7819;48.046;7.642;2023-07-20T04:29:46;4.70;;;3.00;;
2706;SDS011;7819;48.046;7.642;2023-07-20T04:32:12;4.17;;;3.17;;
2706;SDS011;7819;48.046;7.642;2023-07-20T04:34:37;5.60;;;4.33;;
2706;SDS011;7819;48.046;7.642;2023-07-20T04:37:03;3.53;;;3.00;;
2706;SDS011;7819;48.046;7.642;2023-07-20T04:39:28;6.47;;;3.30;;
2706;SDS011;7819;48.046;7.642;2023-07-20T04:41:53;3.87;;;3.47;;
2706;SDS011;7819;48.046;7.642;2023-07-20T04:44:19;3.50;;;3.20;;
2706;SDS011;7819;48.046;7.642;2023-07-20T04:46:44;3.80;;;3.20;;
2706;SDS011;7819;48.046;7.642;2023-07-20T04:49:09;8.27;;;3.50;;
2706;SDS011;7819;48.046;7.642;2023-07-20T04:51:34;5.93;;;4.10;;
2706;SDS011;7819;48.046;7.642;2023-07-20T04:53:59;9.17;;;6.83;;
2706;SDS011;7819;48.046;7.642;2023-07-20T04:56:25;15.90;;;11.13;;
2706;SDS011;7819;48.046;7.642;2023-07-20T04:58:50;7.73;;;3.90;;
2706;SDS011;7819;48.046;7.642;2023-07-20T05:01:15;8.17;;;4.63;;
2706;SDS011;7819;48.046;7.642;2023-07-20T05:03:40;7.60;;;4.83;;
2706;SDS011;7819;48.046;7.642;2023-07-20T05:06:06;5.47;;;3.80;;
2706;SDS011;7819;48.046;7.642;2023-07-20T05:08:31;11.10;;;5.13;;
2706;SDS011;7819;48.046;7.642;2023-07-20T05:10:56;4.97;;;4.57;;
2706;SDS011;7819;48.046;7.642;2023-07-20T05:13:21;5.97;;;4.23;;
2706;SDS011;7819;48.046;7.642;2023-07-20T05:15:46;6.83;;;4.13;;
2706;SDS011;7819;48.046;7.642;2023-07-20T05:18:11;9.63;;;4.77;;
2706;SDS011;7819;48.046;7.642;2023-07-20T05:20:37;4.77;;;3.50;;
2706;SDS011;7819;48.046;7.642;2023-07-20T05:23:02;5.37;;;3.40;;
2706;SDS011;7819;48.046;7.642;2023-07-20T05:25:28;6.73;;;3.27;;
2706;SDS011;7819;48.046;7.642;2023-07-20T05:27:53;4.80;;;2.80;;
2706;SDS011;7819;48.046;7.642;2023-07-20T05:30:20;4.30;;;3.10;;
2706;SDS011;7819;48.046;7.642;2023-07-20T05:32:45;6.13;;;3.70;;
2706;SDS011;7819;48.046;7.642;2023-07-20T05:35:12;4.37;;;3.30;;
2706;SDS011;7819;48.046;7.642;2023-07-20T05:37:39;4.10;;;3.10;;
2706;SDS011;7819;48.046;7.642;2023-07-20T05:40:04;9.17;;;3.50;;
2706;SDS011;7819;48.046;7.642;2023-07-20T05:42:30;5.20;;;3.77;;
2706;SDS011;7819;48.046;7.642;2023-07-20T05:44:55;5.10;;;3.70;;
2706;SDS011;7819;48.046;7.642;2023-07-20T05:47:20;5.43;;;3.33;;
2706;SDS011;7819;48.046;7.642;2023-07-20T05:49:45;4.20;;;3.10;;
2706;SDS011;7819;48.046;7.642;2023-07-20T05:52:10;5.90;;;3.83;;
2706;SDS011;7819;48.046;7.642;2023-07-20T05:54:36;4.10;;;3.43;;
2706;SDS011;7819;48.046;7.642;2023-07-20T05:57:01;5.47;;;3.77;;
2706;SDS011;7819;48.046;7.642;2023-07-20T05:59:27;6.20;;;3.70;;
2706;SDS011;7819;48.046;7.642;2023-07-20T06:01:54;5.90;;;4.03;;
2706;SDS011;7819;48.046;7.642;2023-07-20T06:04:19;4.77;;;4.10;;
2706;SDS011;7819;48.046;7.642;2023-07-20T06:06:44;6.37;;;4.27;;
2706;SDS011;7819;48.046;7.642;2023-07-20T06:09:09;4.27;;;3.50;;
2706;SDS011;7819;48.046;7.642;2023-07-20T06:11:37;4.37;;;3.10;;
2706;SDS011;7819;48.046;7.642;2023-07-20T06:14:02;4.40;;;3.83;;
2706;SDS011;7819;48.046;7.642;2023-07-20T06:16:27;3.63;;;3.00;;
2706;SDS011;7819;48.046;7.642;2023-07-20T06:18:52;4.47;;;3.60;;
2706;SDS011;7819;48.046;7.642;2023-07-20T06:21:18;4.13;;;2.87;;
2706;SDS011;7819;48.046;7.642;2023-07-20T06:23:43;8.53;;;2.77;;
2706;SDS011;7819;48.046;7.642;2023-07-20T06:26:08;3.93;;;3.17;;
2706;SDS011;7819;48.046;7.642;2023-07-20T06:28:33;4.17;;;2.53;;
2706;SDS011;7819;48.046;7.642;2023-07-20T06:31:01;6.73;;;3.13;;
2706;SDS011;7819;48.046;7.642;2023-07-20T06:33:27;3.27;;;2.47;;
2706;SDS011;7819;48.046;7.642;2023-07-20T06:35:52;6.63;;;3.53;;
2706;SDS011;7819;48.046;7.642;2023-07-20T06:38:18;3.50;;;2.63;;
2706;SDS011;7819;48.046;7.642;2023-07-20T06:40:43;4.57;;;2.90;;
2706;SDS011;7819;48.046;7.642;2023-07-20T06:43:08;4.67;;;3.07;;
2706;SDS011;7819;48.046;7.642;2023-07-20T06:45:33;4.53;;;3.40;;
2706;SDS011;7819;48.046;7.642;2023-07-20T06:47:58;4.85;;;3.20;;
2706;SDS011;7819;48.046;7.642;2023-07-20T06:50:23;3.73;;;3.10;;
2706;SDS011;7819;48.046;7.642;2023-07-20T06:52:49;5.97;;;3.60;;
2706;SDS011;7819;48.046;7.642;2023-07-20T06:55:14;4.53;;;3.10;;
2706;SDS011;7819;48.046;7.642;2023-07-20T06:57:39;5.63;;;3.10;;
2706;SDS011;7819;48.046;7.642;2023-07-20T07:00:05;8.37;;;2.83;;
2706;SDS011;7819;48.046;7.642;2023-07-20T07:02:31;5.80;;;2.73;;
2706;SDS011;7819;48.046;7.642;2023-07-20T07:04:56;3.80;;;2.50;;
2706;SDS011;7819;48.046;7.642;2023-07-20T07:07:22;3.83;;;3.08;;
2706;SDS011;7819;48.046;7.642;2023-07-20T07:09:47;6.03;;;3.10;;
2706;SDS011;7819;48.046;7.642;2023-07-20T07:12:12;3.83;;;3.17;;
2706;SDS011;7819;48.046;7.642;2023-07-20T07:14:37;5.33;;;3.23;;
2706;SDS011;7819;48.046;7.642;2023-07-20T07:17:03;6.17;;;3.57;;
2706;SDS011;7819;48.046;7.642;2023-07-20T07:19:28;4.53;;;3.97;;
2706;SDS011;7819;48.046;7.642;2023-07-20T07:21:53;5.70;;;3.30;;
2706;SDS011;7819;48.046;7.642;2023-07-20T07:24:18;4.57;;;3.17;;
2706;SDS011;7819;48.046;7.642;2023-07-20T07:26:44;7.53;;;3.53;;
2706;SDS011;7819;48.046;7.642;2023-07-20T07:29:09;9.23;;;3.80;;
2706;SDS011;7819;48.046;7.642;2023-07-20T07:31:35;7.10;;;2.90;;
2706;SDS011;7819;48.046;7.642;2023-07-20T07:34:03;3.73;;;3.10;;
2706;SDS011;7819;48.046;7.642;2023-07-20T07:36:29;3.70;;;3.10;;
2706;SDS011;7819;48.046;7.642;2023-07-20T07:38:54;5.47;;;3.50;;
2706;SDS011;7819;48.046;7.642;2023-07-20T07:41:19;4.90;;;3.30;;
2706;SDS011;7819;48.046;7.642;2023-07-20T07:43:45;7.17;;;3.30;;
2706;SDS011;7819;48.046;7.642;2023-07-20T07:46:11;9.63;;;3.63;;
2706;SDS011;7819;48.046;7.642;2023-07-20T07:48:36;3.67;;;2.60;;
2706;SDS011;7819;48.046;7.642;2023-07-20T07:51:01;4.07;;;2.97;;
2706;SDS011;7819;48.046;7.642;2023-07-20T07:53:26;4.97;;;3.10;;
2706;SDS011;7819;48.046;7.642;2023-07-20T07:55:52;2.80;;;2.60;;
2706;SDS011;7819;48.046;7.642;2023-07-20T07:58:17;5.43;;;3.00;;
2706;SDS011;7819;48.046;7.642;2023-07-20T08:00:42;4.70;;;2.70;;
2706;SDS011;7819;48.046;7.642;2023-07-20T08:03:09;3.70;;;3.23;;
2706;SDS011;7819;48.046;7.642;2023-07-20T08:05:34;6.10;;;2.90;;
2706;SDS011;7819;48.046;7.642;2023-07-20T08:08:00;13.83;;;3.20;;
2706;SDS011;7819;48.046;7.642;2023-07-20T08:10:25;3.87;;;2.70;;
2706;SDS011;7819;48.046;7.642;2023-07-20T08:12:50;4.93;;;3.20;;
2706;SDS011;7819;48.046;7.642;2023-07-20T08:15:16;3.93;;;2.70;;
2706;SDS011;7819;48.046;7.642;2023-07-20T08:17:42;5.50;;;3.03;;
2706;SDS011;7819;48.046;7.642;2023-07-20T08:20:09;4.43;;;2.97;;
2706;SDS011;7819;48.046;7.642;2023-07-20T08:22:37;2.73;;;2.40;;
2706;SDS011;7819;48.046;7.642;2023-07-20T08:25:02;5.17;;;2.80;;
2706;SDS011;7819;48.046;7.642;2023-07-20T08:27:27;3.87;;;3.00;;
2706;SDS011;7819;48.046;7.642;2023-07-20T08:29:54;6.03;;;2.90;;
2706;SDS011;7819;48.046;7.642;2023-07-20T08:32:19;3.30;;;2.87;;
2706;SDS011;7819;48.046;7.642;2023-07-20T08:34:44;3.73;;;3.30;;
2706;SDS011;7819;48.046;7.642;2023-07-20T08:37:09;3.00;;;2.70;;
2706;SDS011;7819;48.046;7.642;2023-07-20T08:39:37;5.57;;;2.80;;
2706;SDS011;7819;48.046;7.642;2023-07-20T08:42:03;3.77;;;2.63;;
2706;SDS011;7819;48.046;7.642;2023-07-20T08:44:31;7.73;;;2.60;;
2706;SDS011;7819;48.046;7.642;2023-07-20T08:46:57;3.90;;;2.73;;
2706;SDS011;7819;48.046;7.642;2023-07-20T08:49:23;5.07;;;3.43;;
2706;SDS011;7819;48.046;7.642;2023-07-20T08:51:48;4.17;;;2.90;;
2706;SDS011;7819;48.046;7.642;2023-07-20T08:54:13;3.53;;;2.97;;
2706;SDS011;7819;48.046;7.642;2023-07-20T08:56:39;3.63;;;2.40;;
2706;SDS011;7819;48.046;7.642;2023-07-20T08:59:06;5.33;;;3.33;;
2706;SDS011;7819;48.046;7.642;2023-07-20T09:01:32;3.90;;;3.17;;
2706;SDS011;7819;48.046;7.642;2023-07-20T09:03:59;3.00;;;2.70;;
2706;SDS011;7819;48.046;7.642;2023-07-20T09:06:26;3.20;;;2.70;;
2706;SDS011;7819;48.046;7.642;2023-07-20T09:08:52;4.00;;;2.80;;
2706;SDS011;7819;48.046;7.642;2023-07-20T09:11:17;4.63;;;2.67;;
2706;SDS011;7819;48.046;7.642;2023-07-20T09:13:42;3.63;;;2.90;;
2706;SDS011;7819;48.046;7.642;2023-07-20T09:16:07;3.03;;;2.40;;
2706;SDS011;7819;48.046;7.642;2023-07-20T09:18:33;3.93;;;2.63;;
2706;SDS011;7819;48.046;7.642;2023-07-20T09:21:03;4.80;;;2.87;;
2706;SDS011;7819;48.046;7.642;2023-07-20T09:23:35;8.67;;;6.30;;
2706;SDS011;7819;48.046;7.642;2023-07-20T09:26:00;4.33;;;2.97;;
2706;SDS011;7819;48.046;7.642;2023-07-20T09:28:26;3.10;;;2.17;;
2706;SDS011;7819;48.046;7.642;2023-07-20T09:30:51;3.03;;;2.50;;
2706;SDS011;7819;48.046;7.642;2023-07-20T09:33:22;3.00;;;2.13;;
2706;SDS011;7819;48.046;7.642;2023-07-20T09:35:48;5.03;;;1.85;;
2706;SDS011;7819;48.046;7.642;2023-07-20T09:38:13;4.10;;;2.13;;
2706;SDS011;7819;48.046;7.642;2023-07-20T09:40:39;4.50;;;2.42;;
2706;SDS011;7819;48.046;7.642;2023-07-20T09:43:07;7.50;;;2.70;;
2706;SDS011;7819;48.046;7.642;2023-07-20T09:45:33;4.72;;;3.15;;
2706;SDS011;7819;48.046;7.642;2023-07-20T09:48:07;2.47;;;1.93;;
2706;SDS011;7819;48.046;7.642;2023-07-20T09:50:42;2.53;;;1.87;;
2706;SDS011;7819;48.046;7.642;2023-07-20T09:53:08;2.17;;;1.77;;
2706;SDS011;7819;48.046;7.642;2023-07-20T09:55:34;3.00;;;2.23;;
2706;SDS011;7819;48.046;7.642;2023-07-20T09:57:59;5.23;;;2.40;;
2706;SDS011;7819;48.046;7.642;2023-07-20T10:00:25;2.37;;;2.13;;
2706;SDS011;7819;48.046;7.642;2023-07-20T10:02:50;2.50;;;2.07;;
2706;SDS011;7819;48.046;7.642;2023-07-20T10:05:16;2.63;;;1.93;;
2706;SDS011;7819;48.046;7.642;2023-07-20T10:07:49;4.20;;;2.13;;
2706;SDS011;7819;48.046;7.642;2023-07-20T10:10:15;5.37;;;2.90;;
2706;SDS011;7819;48.046;7.642;2023-07-20T10:12:42;3.53;;;2.10;;
2706;SDS011;7819;48.046;7.642;2023-07-20T10:17:33;3.70;;;2.70;;
2706;SDS011;7819;48.046;7.642;2023-07-20T10:19:58;4.07;;;2.27;;
2706;SDS011;7819;48.046;7.642;2023-07-20T10:22:26;2.00;;;1.80;;
2706;SDS011;7819;48.046;7.642;2023-07-20T10:24:51;2.70;;;1.70;;
2706;SDS011;7819;48.046;7.642;2023-07-20T10:27:19;2.60;;;1.90;;
2706;SDS011;7819;48.046;7.642;2023-07-20T10:29:44;2.20;;;1.80;;
2706;SDS011;7819;48.046;7.642;2023-07-20T10:32:10;3.10;;;2.00;;
2706;SDS011;7819;48.046;7.642;2023-07-20T10:34:35;3.23;;;2.93;;
2706;SDS011;7819;48.046;7.642;2023-07-20T10:37:01;4.47;;;2.30;;
2706;SDS011;7819;48.046;7.642;2023-07-20T10:39:35;2.90;;;1.73;;
2706;SDS011;7819;48.046;7.642;2023-07-20T10:44:25;4.40;;;1.70;;
2706;SDS011;7819;48.046;7.642;2023-07-20T10:46:51;2.47;;;2.00;;
2706;SDS011;7819;48.046;7.642;2023-07-20T10:49:23;1.93;;;1.50;;
2706;SDS011;7819;48.046;7.642;2023-07-20T10:51:55;3.47;;;2.07;;
2706;SDS011;7819;48.046;7.642;2023-07-20T10:56:49;2.20;;;1.80;;
2706;SDS011;7819;48.046;7.642;2023-07-20T10:59:18;3.60;;;1.77;;
2706;SDS011;7819;48.046;7.642;2023-07-20T11:01:46;2.80;;;2.37;;
2706;SDS011;7819;48.046;7.642;2023-07-20T11:04:12;3.77;;;2.40;;
2706;SDS011;7819;48.046;7.642;2023-07-20T11:06:37;2.70;;;1.83;;
2706;SDS011;7819;48.046;7.642;2023-07-20T11:09:11;2.47;;;2.10;;
2706;SDS011;7819;48.046;7.642;2023-07-20T11:11:40;6.10;;;3.40;;
2706;SDS011;7819;48.046;7.642;2023-07-20T11:14:26;2.90;;;2.07;;
2706;SDS011;7819;48.046;7.642;2023-07-20T11:16:51;3.40;;;2.50;;
2706;SDS011;7819;48.046;7.642;2023-07-20T11:19:20;3.67;;;2.00;;
2706;SDS011;7819;48.046;7.642;2023-07-20T11:21:46;3.40;;;1.73;;
2706;SDS011;7819;48.046;7.642;2023-07-20T11:24:11;4.63;;;3.07;;
2706;SDS011;7819;48.046;7.642;2023-07-20T11:26:44;2.30;;;2.00;;
2706;SDS011;7819;48.046;7.642;2023-07-20T11:29:10;2.20;;;1.80;;
2706;SDS011;7819;48.046;7.642;2023-07-20T11:31:36;3.30;;;1.90;;
2706;SDS011;7819;48.046;7.642;2023-07-20T11:34:02;3.07;;;1.90;;
2706;SDS011;7819;48.046;7.642;2023-07-20T11:36:27;3.27;;;1.83;;
2706;SDS011;7819;48.046;7.642;2023-07-20T11:38:52;4.03;;;2.00;;
2706;SDS011;7819;48.046;7.642;2023-07-20T11:41:19;2.80;;;1.50;;
2706;SDS011;7819;48.046;7.642;2023-07-20T11:43:44;2.20;;;1.70;;
2706;SDS011;7819;48.046;7.642;2023-07-20T11:46:10;5.70;;;1.83;;
2706;SDS011;7819;48.046;7.642;2023-07-20T11:48:35;2.80;;;2.10;;
2706;SDS011;7819;48.046;7.642;2023-07-20T11:51:01;1.90;;;1.70;;
2706;SDS011;7819;48.046;7.642;2023-07-20T11:53:26;4.10;;;2.10;;
2706;SDS011;7819;48.046;7.642;2023-07-20T11:55:51;3.13;;;1.87;;
2706;SDS011;7819;48.046;7.642;2023-07-20T11:58:17;2.70;;;2.27;;
2706;SDS011;7819;48.046;7.642;2023-07-20T12:00:43;2.37;;;1.80;;
2706;SDS011;7819;48.046;7.642;2023-07-20T12:03:09;3.77;;;2.23;;
2706;SDS011;7819;48.046;7.642;2023-07-20T12:05:36;2.63;;;1.90;;
2706;SDS011;7819;48.046;7.642;2023-07-20T12:08:01;4.07;;;2.03;;
2706;SDS011;7819;48.046;7.642;2023-07-20T12:10:27;3.60;;;1.70;;
2706;SDS011;7819;48.046;7.642;2023-07-20T12:13:02;3.30;;;1.57;;
2706;SDS011;7819;48.046;7.642;2023-07-20T12:15:30;2.20;;;1.97;;
2706;SDS011;7819;48.046;7.642;2023-07-20T12:17:57;5.23;;;2.73;;
2706;SDS011;7819;48.046;7.642;2023-07-20T12:20:30;3.17;;;1.73;;
2706;SDS011;7819;48.046;7.642;2023-07-20T12:23:07;3.23;;;1.80;;
2706;SDS011;7819;48.046;7.642;2023-07-20T12:25:40;2.13;;;1.93;;
2706;SDS011;7819;48.046;7.642;2023-07-20T12:28:10;2.10;;;1.90;;
2706;SDS011;7819;48.046;7.642;2023-07-20T12:30:36;3.93;;;1.97;;
2706;SDS011;7819;48.046;7.642;2023-07-20T12:33:01;2.83;;;1.77;;
2706;SDS011;7819;48.046;7.642;2023-07-20T12:35:27;3.30;;;2.00;;
2706;SDS011;7819;48.046;7.642;2023-07-20T12:37:52;2.63;;;2.03;;
2706;SDS011;7819;48.046;7.642;2023-07-20T12:40:18;2.13;;;1.90;;
2706;SDS011;7819;48.046;7.642;2023-07-20T12:42:43;2.80;;;1.90;;
2706;SDS011;7819;48.046;7.642;2023-07-20T12:45:09;5.00;;;2.27;;
2706;SDS011;7819;48.046;7.642;2023-07-20T12:47:36;2.37;;;1.80;;
2706;SDS011;7819;48.046;7.642;2023-07-20T12:50:01;5.03;;;2.13;;
2706;SDS011;7819;48.046;7.642;2023-07-20T12:52:26;3.00;;;2.00;;
2706;SDS011;7819;48.046;7.642;2023-07-20T12:54:51;3.30;;;2.43;;
2706;SDS011;7819;48.046;7.642;2023-07-20T12:57:17;2.10;;;1.77;;
2706;SDS011;7819;48.046;7.642;2023-07-20T12:59:42;2.07;;;1.70;;
2706;SDS011;7819;48.046;7.642;2023-07-20T13:02:07;4.10;;;2.33;;
2706;SDS011;7819;48.046;7.642;2023-07-20T13:04:32;2.30;;;1.70;;
2706;SDS011;7819;48.046;7.642;2023-07-20T13:06:58;1.97;;;1.80;;
2706;SDS011;7819;48.046;7.642;2023-07-20T13:09:23;3.30;;;2.20;;
2706;SDS011;7819;48.046;7.642;2023-07-20T13:11:48;3.50;;;2.30;;
2706;SDS011;7819;48.046;7.642;2023-07-20T13:14:14;2.60;;;1.93;;
2706;SDS011;7819;48.046;7.642;2023-07-20T13:16:39;2.90;;;2.00;;
2706;SDS011;7819;48.046;7.642;2023-07-20T13:19:04;4.23;;;1.67;;
2706;SDS011;7819;48.046;7.642;2023-07-20T13:21:29;4.10;;;2.20;;
2706;SDS011;7819;48.046;7.642;2023-07-20T13:23:54;2.30;;;1.60;;
2706;SDS011;7819;48.046;7.642;2023-07-20T13:26:19;2.20;;;1.67;;
2706;SDS011;7819;48.046;7.642;2023-07-20T13:28:45;5.13;;;2.67;;
2706;SDS011;7819;48.046;7.642;2023-07-20T13:31:10;3.10;;;2.00;;
2706;SDS011;7819;48.046;7.642;2023-07-20T13:33:36;2.50;;;2.03;;
2706;SDS011;7819;48.046;7.642;2023-07-20T13:36:01;3.83;;;2.10;;
2706;SDS011;7819;48.046;7.642;2023-07-20T13:38:26;3.20;;;2.33;;
2706;SDS011;7819;48.046;7.642;2023-07-20T13:40:52;2.47;;;1.90;;
2706;SDS011;7819;48.046;7.642;2023-07-20T13:43:17;2.63;;;1.70;;
2706;SDS011;7819;48.046;7.642;2023-07-20T13:45:42;4.93;;;2.23;;
2706;SDS011;7819;48.046;7.642;2023-07-20T13:48:08;3.27;;;2.00;;
2706;SDS011;7819;48.046;7.642;2023-07-20T13:50:33;2.60;;;1.63;;
2706;SDS011;7819;48.046;7.642;2023-07-20T13:52:58;3.23;;;1.77;;
2706;SDS011;7819;48.046;7.642;2023-07-20T13:55:24;2.60;;;1.90;;
2706;SDS011;7819;48.046;7.642;2023-07-20T13:57:49;2.27;;;1.73;;
2706;SDS011;7819;48.046;7.642;2023-07-20T14:00:15;2.57;;;1.70;;
2706;SDS011;7819;48.046;7.642;2023-07-20T14:02:40;2.70;;;1.97;;
2706;SDS011;7819;48.046;7.642;2023-07-20T14:05:06;2.40;;;1.67;;
2706;SDS011;7819;48.046;7.642;2023-07-20T14:07:31;2.47;;;1.40;;
2706;SDS011;7819;48.046;7.642;2023-07-20T14:09:56;3.70;;;1.77;;
2706;SDS011;7819;48.046;7.642;2023-07-20T14:12:21;2.00;;;1.80;;
2706;SDS011;7819;48.046;7.642;2023-07-20T14:14:46;2.87;;;1.97;;
2706;SDS011;7819;48.046;7.642;2023-07-20T14:17:12;2.50;;;1.57;;
2706;SDS011;7819;48.046;7.642;2023-07-20T14:19:37;4.50;;;1.57;;
2706;SDS011;7819;48.046;7.642;2023-07-20T14:22:02;2.00;;;1.63;;
2706;SDS011;7819;48.046;7.642;2023-07-20T14:24:29;2.17;;;1.83;;
2706;SDS011;7819;48.046;7.642;2023-07-20T14:26:54;2.47;;;1.83;;
2706;SDS011;7819;48.046;7.642;2023-07-20T14:29:19;2.87;;;2.03;;
2706;SDS011;7819;48.046;7.642;2023-07-20T14:31:45;2.97;;;1.97;;
2706;SDS011;7819;48.046;7.642;2023-07-20T14:34:10;3.17;;;1.97;;
2706;SDS011;7819;48.046;7.642;2023-07-20T14:36:35;2.23;;;2.00;;
2706;SDS011;7819;48.046;7.642;2023-07-20T14:39:00;5.23;;;2.43;;
2706;SDS011;7819;48.046;7.642;2023-07-20T14:41:25;6.40;;;1.80;;
2706;SDS011;7819;48.046;7.642;2023-07-20T14:43:51;3.50;;;1.87;;
2706;SDS011;7819;48.046;7.642;2023-07-20T14:46:16;6.30;;;2.40;;
2706;SDS011;7819;48.046;7.642;2023-07-20T14:48:41;3.13;;;2.23;;
2706;SDS011;7819;48.046;7.642;2023-07-20T14:51:07;6.47;;;1.90;;
2706;SDS011;7819;48.046;7.642;2023-07-20T14:53:32;4.63;;;1.77;;
2706;SDS011;7819;48.046;7.642;2023-07-20T14:55:58;2.57;;;1.70;;
2706;SDS011;7819;48.046;7.642;2023-07-20T14:58:23;2.40;;;1.63;;
2706;SDS011;7819;48.046;7.642;2023-07-20T15:00:49;3.87;;;1.40;;
2706;SDS011;7819;48.046;7.642;2023-07-20T15:03:15;3.33;;;1.40;;
2706;SDS011;7819;48.046;7.642;2023-07-20T15:05:40;2.93;;;1.43;;
2706;SDS011;7819;48.046;7.642;2023-07-20T15:08:05;3.77;;;2.10;;
2706;SDS011;7819;48.046;7.642;2023-07-20T15:10:31;3.40;;;1.70;;
2706;SDS011;7819;48.046;7.642;2023-07-20T15:12:57;3.30;;;1.97;;
2706;SDS011;7819;48.046;7.642;2023-07-20T15:15:22;2.23;;;1.73;;
2706;SDS011;7819;48.046;7.642;2023-07-20T15:17:47;2.30;;;1.80;;
2706;SDS011;7819;48.046;7.642;2023-07-20T15:20:14;2.00;;;1.73;;
2706;SDS011;7819;48.046;7.642;2023-07-20T15:22:40;1.60;;;1.30;;